Time;durP1;ratioP1;P1;durP2;ratioP2;P2;SDS_P1;SDS_P2;PMS_P1;PMS_P2;Temp;Humidity;BMP_temperature;BMP_pressure;BME280_temperature;BME280_humidity;BME280_pressure;Samples;Min_cycle;Max_cycle;Signal;HPM_P1;HPM_P2
2024/03/13 00:00:16;;;;;;;7.80;6.90;;;6.80;99.90;;;;;;5072467;28;20751;-60
2024/03/13 00:02:45;;;;;;;11.73;7.87;;;6.80;99.90;;;;;;5068056;28;20290;-61
2024/03/13 00:05:12;;;;;;;7.90;6.90;;;6.90;99.90;;;;;;5072646;28;20209;-61
2024/03/13 00:07:44;;;;;;;9.00;6.93;;;6.80;99.90;;;;;;5069533;28;20223;-61
2024/03/13 00:10:11;;;;;;;8.30;7.33;;;6.80;99.90;;;;;;5070329;28;20595;-61
2024/03/13 00:12:38;;;;;;;8.93;7.67;;;6.80;99.90;;;;;;5072722;28;20260;-61
2024/03/13 00:15:08;;;;;;;8.37;6.27;;;6.80;99.90;;;;;;5069602;28;20193;-61
2024/03/13 00:17:35;;;;;;;10.93;7.17;;;6.80;99.90;;;;;;5061666;28;20717;-61
2024/03/13 00:20:03;;;;;;;6.63;6.03;;;6.70;99.90;;;;;;5066873;28;20203;-61
2024/03/13 00:22:31;;;;;;;7.53;6.13;;;6.70;99.90;;;;;;5071180;28;20217;-61
2024/03/13 00:24:58;;;;;;;9.27;6.80;;;6.70;99.90;;;;;;5069185;28;20650;-62
2024/03/13 00:27:26;;;;;;;8.03;7.33;;;6.70;99.90;;;;;;5069044;28;20600;-61
2024/03/13 00:29:53;;;;;;;6.83;5.83;;;6.60;99.90;;;;;;5068721;28;20214;-61
2024/03/13 00:32:23;;;;;;;8.37;6.37;;;6.60;99.90;;;;;;5068894;28;20277;-61
2024/03/13 00:34:51;;;;;;;7.60;6.80;;;6.60;99.90;;;;;;5063006;28;20207;-61
2024/03/13 00:37:18;;;;;;;9.03;6.10;;;6.60;99.90;;;;;;5068492;28;20632;-61
2024/03/13 00:39:45;;;;;;;9.60;8.03;;;6.60;99.90;;;;;;5054978;28;20677;-61
2024/03/13 00:42:12;;;;;;;8.23;7.33;;;6.60;99.90;;;;;;5071564;28;20219;-61
2024/03/13 00:44:39;;;;;;;11.03;8.40;;;6.60;99.90;;;;;;5068546;28;20194;-61
2024/03/13 00:47:06;;;;;;;10.43;9.27;;;6.60;99.90;;;;;;5069103;28;20231;-61
2024/03/13 00:49:35;;;;;;;18.57;12.40;;;6.60;99.90;;;;;;5066937;28;20207;-61
2024/03/13 00:52:02;;;;;;;14.47;10.60;;;6.60;99.90;;;;;;5073912;28;20272;-61
2024/03/13 00:54:30;;;;;;;15.70;11.37;;;6.60;99.90;;;;;;5070204;28;20825;-61
2024/03/13 00:56:57;;;;;;;11.80;10.17;;;6.50;99.90;;;;;;5065265;28;20222;-61
2024/03/13 00:59:26;;;;;;;15.43;10.87;;;6.60;99.90;;;;;;5068569;28;20199;-61
2024/03/13 01:01:55;;;;;;;14.50;9.97;;;6.60;99.90;;;;;;5070193;28;20602;-62
2024/03/13 01:04:24;;;;;;;15.47;11.40;;;6.60;99.90;;;;;;5075027;28;20222;-61
2024/03/13 01:06:52;;;;;;;17.47;11.97;;;6.60;99.90;;;;;;5068443;28;20715;-61
2024/03/13 01:09:23;;;;;;;13.73;9.93;;;6.60;99.90;;;;;;5072571;28;20272;-61
2024/03/13 01:11:50;;;;;;;16.63;9.77;;;6.60;99.90;;;;;;5070014;28;20229;-61
2024/03/13 01:14:20;;;;;;;13.40;10.17;;;6.60;99.90;;;;;;5068146;28;20207;-61
2024/03/13 01:16:49;;;;;;;13.50;9.40;;;6.60;99.90;;;;;;5066398;28;20223;-61
2024/03/13 01:19:16;;;;;;;11.70;10.13;;;6.70;99.90;;;;;;5059955;28;20424;-62
2024/03/13 01:21:43;;;;;;;16.57;10.73;;;6.70;99.90;;;;;;5071403;28;20191;-61
2024/03/13 01:24:11;;;;;;;17.27;11.77;;;6.70;99.90;;;;;;5065396;28;20211;-61
2024/03/13 01:26:39;;;;;;;12.20;10.13;;;6.70;99.90;;;;;;5065517;28;20241;-61
2024/03/13 01:29:07;;;;;;;12.10;10.27;;;6.60;99.90;;;;;;5068725;28;20746;-61
2024/03/13 01:31:35;;;;;;;14.23;10.97;;;6.60;99.90;;;;;;5059698;28;20698;-61
2024/03/13 01:34:03;;;;;;;16.17;11.13;;;6.60;99.90;;;;;;5070871;28;20558;-61
2024/03/13 01:39:17;;;;;;;14.70;10.37;;;6.50;99.90;;;;;;5068467;28;20217;-61
2024/03/13 01:55:35;;;;;;;13.43;10.63;;;6.50;99.90;;;;;;5070428;28;20623;-61
2024/03/13 01:58:08;;;;;;;14.40;11.03;;;6.50;99.90;;;;;;5071457;28;20260;-61
2024/03/13 02:03:22;;;;;;;14.30;11.70;;;6.40;99.90;;;;;;5069601;28;20721;-61
2024/03/13 02:05:50;;;;;;;13.17;10.20;;;6.40;99.90;;;;;;5072736;28;20252;-61
2024/03/13 02:08:19;;;;;;;16.57;12.53;;;6.40;99.90;;;;;;5062856;28;20299;-61
2024/03/13 02:10:48;;;;;;;12.63;10.67;;;6.40;99.90;;;;;;5074994;28;20222;-61
2024/03/13 02:13:18;;;;;;;13.07;10.20;;;6.40;99.90;;;;;;5074046;28;20256;-61
2024/03/13 02:15:45;;;;;;;16.23;10.60;;;6.40;99.90;;;;;;5075210;28;20201;-61
2024/03/13 02:18:19;;;;;;;13.77;10.87;;;6.40;99.90;;;;;;5077587;28;20226;-61
2024/03/13 02:20:46;;;;;;;13.57;10.30;;;6.30;99.90;;;;;;5075028;28;20256;-61
2024/03/13 02:23:23;;;;;;;9.40;8.50;;;6.40;99.90;;;;;;5074804;28;20251;-61
2024/03/13 02:25:51;;;;;;;9.57;8.53;;;6.40;99.90;;;;;;5072593;28;20284;-61
2024/03/13 02:28:19;;;;;;;10.57;8.87;;;6.40;99.90;;;;;;5054578;28;20219;-61
2024/03/13 02:30:47;;;;;;;8.50;7.67;;;6.30;99.90;;;;;;5073521;28;20293;-61
2024/03/13 02:33:14;;;;;;;7.97;6.40;;;6.30;99.90;;;;;;5073751;28;20204;-61
2024/03/13 02:35:43;;;;;;;11.23;7.10;;;6.20;99.90;;;;;;5072478;28;20204;-61
2024/03/13 02:38:10;;;;;;;8.97;7.47;;;6.30;99.90;;;;;;5052553;28;20230;-61
2024/03/13 02:40:37;;;;;;;7.40;6.70;;;6.40;99.90;;;;;;5073621;28;20207;-61
2024/03/13 02:43:04;;;;;;;7.73;5.33;;;6.30;99.90;;;;;;5072287;28;20637;-61
2024/03/13 02:45:32;;;;;;;8.47;5.37;;;6.30;99.90;;;;;;5072257;28;20199;-61
2024/03/13 02:47:59;;;;;;;5.67;5.17;;;6.30;99.90;;;;;;5056787;28;20314;-61
2024/03/13 02:50:26;;;;;;;7.20;5.00;;;6.30;99.90;;;;;;5058310;28;20208;-61
2024/03/13 02:52:54;;;;;;;5.13;4.63;;;6.20;99.90;;;;;;5057321;28;20227;-61
2024/03/13 02:55:21;;;;;;;5.07;4.50;;;6.10;99.90;;;;;;5055411;28;20206;-61
2024/03/13 02:57:49;;;;;;;4.93;3.90;;;6.20;99.90;;;;;;5073154;28;20221;-61
2024/03/13 03:00:17;;;;;;;5.83;3.37;;;6.20;99.90;;;;;;5076845;28;20204;-61
2024/03/13 03:02:44;;;;;;;4.03;3.13;;;6.10;99.90;;;;;;5062855;28;20197;-61
2024/03/13 03:05:11;;;;;;;2.80;2.60;;;6.00;99.90;;;;;;5055334;28;20576;-61
2024/03/13 03:07:43;;;;;;;2.47;2.37;;;6.00;99.90;;;;;;5071899;28;20735;-61
2024/03/13 03:10:10;;;;;;;2.30;2.00;;;6.00;99.90;;;;;;5073135;28;20274;-61
2024/03/13 03:12:39;;;;;;;2.40;2.00;;;6.00;99.90;;;;;;5072705;28;20227;-61
2024/03/13 03:15:06;;;;;;;4.57;1.83;;;5.90;99.90;;;;;;5068744;28;20207;-61
2024/03/13 03:17:33;;;;;;;1.80;1.70;;;5.90;99.90;;;;;;5051308;28;20711;-61
2024/03/13 03:20:00;;;;;;;3.10;2.13;;;5.90;99.90;;;;;;5056062;28;20210;-61
2024/03/13 03:22:27;;;;;;;3.00;1.57;;;5.90;99.90;;;;;;5052734;28;20199;-61
2024/03/13 03:24:55;;;;;;;1.73;1.63;;;5.80;99.90;;;;;;5034659;28;20597;-61
2024/03/13 03:27:23;;;;;;;2.00;1.90;;;5.60;99.90;;;;;;5041747;28;20303;-61
2024/03/13 03:29:50;;;;;;;1.33;1.20;;;5.80;99.90;;;;;;5053856;28;20193;-61
2024/03/13 03:32:17;;;;;;;1.97;1.40;;;5.80;99.90;;;;;;5071337;28;20308;-61
2024/03/13 03:34:44;;;;;;;0.90;0.90;;;5.80;99.90;;;;;;5072512;28;20195;-61
2024/03/13 03:37:11;;;;;;;1.13;1.10;;;5.70;99.90;;;;;;5055192;28;20231;-61
2024/03/13 03:39:39;;;;;;;2.10;1.03;;;;;;;;;;5054427;28;20722;-61
2024/03/13 03:42:06;;;;;;;0.60;0.60;;;5.70;99.90;;;;;;5072230;28;20210;-61
2024/03/13 03:44:33;;;;;;;0.60;0.60;;;5.70;99.90;;;;;;5071368;28;20225;-61
2024/03/13 03:47:00;;;;;;;0.40;0.40;;;5.80;99.90;;;;;;5050095;28;20607;-61
2024/03/13 03:49:28;;;;;;;0.50;0.50;;;5.70;99.90;;;;;;5054815;28;20206;-61
2024/03/13 03:51:55;;;;;;;1.03;0.87;;;5.70;99.90;;;;;;5070944;28;20769;-61
2024/03/13 03:54:22;;;;;;;1.70;0.53;;;5.60;99.90;;;;;;5055127;28;20201;-61
2024/03/13 03:56:49;;;;;;;0.60;0.60;;;5.40;99.90;;;;;;5067738;28;20229;-61
2024/03/13 03:59:16;;;;;;;2.00;0.30;;;;;;;;;;5035485;28;20204;-61
2024/03/13 04:01:43;;;;;;;0.20;0.20;;;5.50;99.90;;;;;;5072942;28;20240;-61
2024/03/13 04:04:13;;;;;;;2.27;0.30;;;5.60;99.90;;;;;;5055368;28;20203;-61
2024/03/13 04:06:41;;;;;;;0.23;0.23;;;;;;;;;;5060544;28;20286;-61
2024/03/13 04:09:15;;;;;;;0.33;0.33;;;5.60;99.90;;;;;;5071840;28;20282;-61
2024/03/13 04:11:42;;;;;;;0.50;0.20;;;5.50;99.90;;;;;;5073210;28;20258;-61
2024/03/13 04:14:10;;;;;;;0.30;0.30;;;;;;;;;;5059344;28;20203;-61
2024/03/13 04:16:38;;;;;;;0.13;0.10;;;5.40;99.90;;;;;;5061998;28;20304;-61
2024/03/13 04:19:06;;;;;;;0.20;0.20;;;5.40;99.90;;;;;;5071243;28;20200;-61
2024/03/13 04:21:33;;;;;;;0.40;0.40;;;5.30;99.90;;;;;;5070631;28;20290;-61
2024/03/13 04:24:00;;;;;;;0.53;0.40;;;5.40;99.90;;;;;;5071280;28;20195;-61
2024/03/13 04:26:28;;;;;;;0.53;0.30;;;5.20;99.90;;;;;;5070470;28;20227;-61
2024/03/13 04:28:57;;;;;;;0.37;0.37;;;5.30;99.90;;;;;;5074092;28;20202;-61
2024/03/13 04:31:25;;;;;;;0.20;0.20;;;;;;;;;;5054999;28;20670;-61
2024/03/13 04:33:52;;;;;;;0.30;0.30;;;5.20;99.90;;;;;;5071339;28;20207;-61
2024/03/13 04:36:19;;;;;;;0.30;0.30;;;5.70;99.90;;;;;;5070393;28;20689;-61
2024/03/13 04:38:50;;;;;;;0.33;0.33;;;5.20;99.90;;;;;;5052182;28;20208;-61
2024/03/13 04:41:18;;;;;;;0.43;0.40;;;5.20;99.90;;;;;;5045880;28;20627;-61
2024/03/13 04:43:45;;;;;;;1.70;0.40;;;5.10;99.90;;;;;;5036455;28;20199;-61
2024/03/13 04:46:16;;;;;;;0.30;0.30;;;5.10;99.90;;;;;;5051291;28;20289;-61
2024/03/13 04:48:43;;;;;;;2.00;0.40;;;5.10;99.90;;;;;;5063758;28;20576;-61
2024/03/13 04:51:11;;;;;;;0.70;0.43;;;;;;;;;;5072260;28;20206;-61
2024/03/13 04:53:38;;;;;;;0.87;0.50;;;5.10;99.90;;;;;;5062943;28;20279;-61
2024/03/13 04:56:05;;;;;;;0.43;0.30;;;5.00;99.90;;;;;;5069108;28;20245;-61
2024/03/13 04:58:32;;;;;;;1.20;0.33;;;5.10;99.90;;;;;;5070758;28;20239;-61
2024/03/13 05:00:59;;;;;;;0.40;0.40;;;5.00;99.90;;;;;;5074433;28;20219;-61
2024/03/13 05:03:26;;;;;;;0.40;0.40;;;5.00;99.90;;;;;;5055991;28;20206;-61
2024/03/13 05:05:53;;;;;;;0.13;0.10;;;4.90;99.90;;;;;;5056963;28;20672;-61
2024/03/13 05:08:20;;;;;;;0.30;0.30;;;4.90;99.90;;;;;;5044654;28;20220;-61
2024/03/13 05:10:47;;;;;;;1.07;0.20;;;;;;;;;;5034523;28;20210;-61
2024/03/13 05:13:15;;;;;;;0.20;0.20;;;4.80;99.90;;;;;;5051808;28;20222;-62
2024/03/13 05:15:43;;;;;;;0.10;0.10;;;4.70;99.90;;;;;;5069453;28;20204;-61
2024/03/13 05:18:10;;;;;;;0.57;0.57;;;4.80;99.90;;;;;;5057585;28;20227;-61
2024/03/13 05:20:37;;;;;;;0.20;0.20;;;4.80;99.90;;;;;;5064221;28;20204;-61
2024/03/13 05:23:06;;;;;;;0.83;0.30;;;4.80;99.90;;;;;;5070610;28;20192;-61
2024/03/13 05:25:33;;;;;;;1.13;0.00;;;4.80;99.90;;;;;;5069936;28;20218;-61
2024/03/13 05:28:01;;;;;;;1.80;0.20;;;4.70;99.90;;;;;;5068476;28;20599;-61
2024/03/13 05:30:28;;;;;;;0.17;0.17;;;4.70;99.90;;;;;;5069541;28;20203;-61
2024/03/13 05:32:56;;;;;;;1.47;0.30;;;4.70;99.90;;;;;;5050776;28;20215;-61
2024/03/13 05:35:24;;;;;;;0.40;0.40;;;4.60;99.90;;;;;;5053162;28;20202;-61
2024/03/13 05:37:51;;;;;;;0.30;0.30;;;4.60;99.90;;;;;;5070138;28;20254;-61
2024/03/13 05:40:19;;;;;;;0.30;0.30;;;4.60;99.90;;;;;;5068964;28;20269;-61
2024/03/13 05:42:46;;;;;;;0.20;0.20;;;4.60;99.90;;;;;;5051530;28;20195;-61
2024/03/13 05:45:14;;;;;;;1.03;0.20;;;4.60;99.90;;;;;;5051919;28;20204;-61
2024/03/13 05:47:43;;;;;;;1.23;0.20;;;4.50;99.90;;;;;;5051082;28;20238;-61
2024/03/13 05:50:11;;;;;;;0.23;0.23;;;4.60;99.90;;;;;;5051638;28;20750;-61
2024/03/13 05:52:41;;;;;;;1.50;0.20;;;4.70;99.90;;;;;;5051880;28;20806;-61
2024/03/13 05:55:08;;;;;;;0.30;0.30;;;4.60;99.90;;;;;;5047728;28;20287;-61
2024/03/13 05:57:38;;;;;;;1.27;0.30;;;4.70;99.90;;;;;;5049745;28;20598;-61
2024/03/13 06:00:09;;;;;;;2.77;0.47;;;4.70;99.90;;;;;;5052310;28;20207;-62
2024/03/13 06:02:36;;;;;;;0.30;0.30;;;4.70;99.90;;;;;;5050823;28;20199;-61
2024/03/13 06:05:09;;;;;;;0.30;0.30;;;4.70;99.90;;;;;;5051232;28;20203;-61
2024/03/13 06:07:37;;;;;;;0.40;0.40;;;4.70;99.90;;;;;;5051585;28;20228;-61
2024/03/13 06:10:05;;;;;;;0.50;0.40;;;4.50;99.90;;;;;;5052041;28;20210;-61
2024/03/13 06:12:33;;;;;;;0.30;0.30;;;4.60;99.90;;;;;;5051594;28;20220;-61
2024/03/13 06:15:02;;;;;;;0.30;0.30;;;4.60;99.90;;;;;;5052037;28;20717;-62
2024/03/13 06:17:29;;;;;;;0.60;0.60;;;4.50;99.90;;;;;;5051209;28;20250;-61
2024/03/13 06:19:57;;;;;;;2.40;0.50;;;4.60;99.90;;;;;;5050944;28;20210;-62
2024/03/13 06:22:25;;;;;;;1.37;0.80;;;4.50;99.90;;;;;;5051760;28;20733;-61
2024/03/13 06:24:52;;;;;;;0.97;0.50;;;4.60;99.90;;;;;;5051610;28;20260;-61
2024/03/13 06:27:27;;;;;;;1.13;1.03;;;4.50;99.90;;;;;;5050496;28;20231;-60
2024/03/13 06:29:57;;;;;;;0.47;0.47;;;4.60;99.90;;;;;;5052712;28;20709;-61
2024/03/13 06:32:25;;;;;;;1.70;0.70;;;4.60;99.90;;;;;;5050090;28;20211;-61
2024/03/13 06:34:54;;;;;;;0.77;0.70;;;4.60;99.90;;;;;;5051792;28;20199;-61
2024/03/13 06:37:22;;;;;;;0.53;0.53;;;4.70;99.90;;;;;;5051342;28;20230;-60
2024/03/13 06:39:49;;;;;;;1.23;0.50;;;4.60;99.90;;;;;;5052955;28;20793;-61
2024/03/13 06:42:16;;;;;;;1.40;0.47;;;4.50;99.90;;;;;;5052146;28;20277;-61
2024/03/13 06:44:43;;;;;;;0.40;0.40;;;4.60;99.90;;;;;;5051589;28;20253;-61
2024/03/13 06:47:11;;;;;;;0.73;0.43;;;4.60;99.90;;;;;;5062871;28;20312;-61
2024/03/13 06:49:38;;;;;;;0.83;0.57;;;4.50;99.90;;;;;;5046227;28;20283;-61
2024/03/13 06:52:05;;;;;;;0.87;0.60;;;4.50;99.90;;;;;;5070056;28;20273;-61
2024/03/13 06:54:32;;;;;;;0.60;0.60;;;4.60;99.90;;;;;;5055178;28;20565;-61
2024/03/13 06:56:59;;;;;;;0.63;0.63;;;4.60;99.90;;;;;;5052588;28;20430;-60
2024/03/13 06:59:26;;;;;;;2.60;1.20;;;4.60;99.90;;;;;;5051563;28;20206;-61
2024/03/13 07:01:55;;;;;;;0.77;0.73;;;4.60;99.90;;;;;;5054551;28;20207;-61
2024/03/13 07:04:24;;;;;;;0.70;0.70;;;4.60;99.90;;;;;;5052141;28;20193;-60
2024/03/13 07:06:57;;;;;;;0.63;0.63;;;4.80;99.90;;;;;;5053846;28;20314;-61
2024/03/13 07:09:25;;;;;;;0.43;0.40;;;4.70;99.90;;;;;;5055974;28;20199;-61
2024/03/13 07:11:54;;;;;;;1.33;0.80;;;4.70;99.90;;;;;;5054569;28;20261;-60
2024/03/13 07:14:21;;;;;;;0.70;0.70;;;4.70;99.90;;;;;;5054927;28;20251;-60
2024/03/13 07:16:48;;;;;;;0.50;0.50;;;4.80;99.90;;;;;;5054767;28;20256;-60
2024/03/13 07:19:18;;;;;;;0.63;0.40;;;4.60;99.90;;;;;;5054329;28;20206;-60
2024/03/13 07:21:45;;;;;;;0.50;0.40;;;4.70;99.90;;;;;;5054014;28;20201;-66
2024/03/13 07:24:12;;;;;;;0.90;0.67;;;4.80;99.90;;;;;;5051679;28;20202;-64
2024/03/13 07:26:41;;;;;;;0.50;0.50;;;4.70;99.90;;;;;;5053726;28;20337;-62
2024/03/13 07:29:09;;;;;;;1.43;0.57;;;4.70;99.90;;;;;;5054462;28;20286;-61
2024/03/13 07:31:37;;;;;;;0.63;0.50;;;4.80;99.90;;;;;;5054041;28;20199;-61
2024/03/13 07:34:05;;;;;;;0.67;0.67;;;4.70;99.90;;;;;;5049255;28;20220;-62
2024/03/13 07:36:33;;;;;;;0.30;0.30;;;4.80;99.90;;;;;;5069029;28;20304;-62
2024/03/13 07:39:00;;;;;;;0.40;0.40;;;4.90;99.90;;;;;;5050849;28;20211;-63
2024/03/13 07:41:28;;;;;;;1.90;0.50;;;4.90;99.90;;;;;;5060772;28;20194;-63
2024/03/13 07:43:55;;;;;;;0.50;0.50;;;4.90;99.90;;;;;;5054119;28;20222;-63
2024/03/13 07:46:22;;;;;;;0.83;0.40;;;4.80;99.90;;;;;;5052223;28;20223;-62
2024/03/13 07:48:49;;;;;;;0.70;0.40;;;4.90;99.90;;;;;;5053784;28;20255;-62
2024/03/13 07:51:16;;;;;;;1.33;0.40;;;4.90;99.90;;;;;;5051593;28;21010;-60
2024/03/13 07:53:43;;;;;;;0.37;0.37;;;4.90;99.90;;;;;;5056464;28;20218;-61
2024/03/13 07:56:11;;;;;;;1.60;0.90;;;5.00;99.90;;;;;;5052672;28;20198;-61
2024/03/13 07:58:38;;;;;;;0.47;0.40;;;5.00;99.90;;;;;;5053928;28;20199;-58
2024/03/13 08:01:05;;;;;;;0.40;0.40;;;5.00;99.90;;;;;;5053706;28;20214;-57
2024/03/13 08:03:33;;;;;;;0.77;0.53;;;5.00;99.90;;;;;;5054216;28;20289;-55
2024/03/13 08:06:00;;;;;;;0.77;0.77;;;5.10;99.90;;;;;;5057462;28;20292;-62
2024/03/13 08:08:27;;;;;;;1.13;1.03;;;5.00;99.90;;;;;;5054859;28;20575;-63
2024/03/13 08:10:54;;;;;;;0.53;0.53;;;;;;;;;;5053544;28;20203;-63
2024/03/13 08:13:21;;;;;;;0.63;0.63;;;5.10;99.90;;;;;;5071804;28;20278;-63
2024/03/13 08:15:48;;;;;;;1.47;0.50;;;5.20;99.90;;;;;;5054450;28;20265;-62
2024/03/13 08:18:19;;;;;;;0.50;0.50;;;5.20;99.90;;;;;;5057365;28;20717;-62
2024/03/13 08:20:48;;;;;;;0.70;0.70;;;;;;;;;;5055784;28;20261;-62
2024/03/13 08:23:16;;;;;;;1.00;0.93;;;5.20;99.90;;;;;;5071112;28;20286;-62
2024/03/13 08:25:44;;;;;;;0.50;0.50;;;5.30;99.90;;;;;;5053847;28;20293;-62
2024/03/13 08:28:11;;;;;;;1.47;0.80;;;5.30;99.90;;;;;;5054666;28;20307;-62
2024/03/13 08:30:39;;;;;;;0.63;0.47;;;5.20;99.90;;;;;;5054652;28;20284;-60
2024/03/13 08:33:06;;;;;;;0.40;0.40;;;5.30;99.90;;;;;;5047835;28;20624;-63
2024/03/13 08:35:33;;;;;;;0.60;0.60;;;5.30;99.90;;;;;;5052070;28;20208;-60
2024/03/13 08:38:00;;;;;;;0.40;0.40;;;5.30;99.90;;;;;;5054335;28;20229;-62
2024/03/13 08:40:28;;;;;;;0.40;0.33;;;5.30;99.90;;;;;;5054119;28;20280;-62
2024/03/13 08:42:56;;;;;;;0.40;0.40;;;5.40;99.90;;;;;;5054428;28;20699;-62
2024/03/13 08:45:23;;;;;;;2.20;0.40;;;5.50;99.90;;;;;;5053523;28;20301;-63
2024/03/13 08:47:50;;;;;;;0.60;0.60;;;5.50;99.90;;;;;;5052013;28;20315;-64
2024/03/13 08:50:18;;;;;;;1.30;0.20;;;5.60;99.90;;;;;;5054183;28;20203;-63
2024/03/13 08:52:46;;;;;;;0.17;0.10;;;5.60;99.90;;;;;;5053970;28;20812;-64
2024/03/13 08:55:17;;;;;;;0.27;0.20;;;5.70;99.90;;;;;;5053977;28;20202;-64
2024/03/13 08:57:44;;;;;;;2.83;0.37;;;5.70;99.90;;;;;;5054477;28;20221;-63
2024/03/13 09:00:12;;;;;;;0.37;0.20;;;5.70;99.90;;;;;;5055957;28;20207;-63
2024/03/13 09:02:39;;;;;;;0.30;0.30;;;5.80;99.90;;;;;;5053574;28;20208;-63
2024/03/13 09:05:07;;;;;;;2.90;0.30;;;5.80;99.90;;;;;;5051147;28;20257;-65
2024/03/13 09:07:34;;;;;;;0.40;0.20;;;5.80;99.90;;;;;;5059669;28;20219;-64
2024/03/13 09:10:01;;;;;;;0.47;0.30;;;5.80;99.90;;;;;;5063379;28;20208;-63
2024/03/13 09:12:29;;;;;;;2.53;0.30;;;5.80;99.90;;;;;;5054588;28;20923;-63
2024/03/13 09:14:56;;;;;;;0.20;0.20;;;5.90;99.90;;;;;;5060719;28;20336;-63
2024/03/13 09:17:24;;;;;;;0.27;0.27;;;5.80;99.90;;;;;;5055749;28;20340;-63
2024/03/13 09:19:51;;;;;;;0.27;0.27;;;5.90;99.90;;;;;;5063405;28;20205;-63
2024/03/13 09:22:18;;;;;;;1.90;0.30;;;6.00;99.90;;;;;;5055064;28;20224;-63
2024/03/13 09:24:45;;;;;;;0.17;0.13;;;6.10;99.90;;;;;;5070586;28;20196;-64
2024/03/13 09:27:13;;;;;;;0.30;0.30;;;6.10;99.90;;;;;;5075742;28;20220;-65
2024/03/13 09:29:40;;;;;;;0.20;0.20;;;6.10;99.90;;;;;;5059384;28;20206;-63
2024/03/13 09:32:07;;;;;;;0.20;0.20;;;6.00;99.90;;;;;;5069664;28;20307;-58
2024/03/13 09:34:34;;;;;;;0.30;0.30;;;6.10;99.90;;;;;;5049860;28;20268;-59
2024/03/13 09:37:04;;;;;;;0.20;0.20;;;6.10;99.90;;;;;;5069957;28;20228;-59
2024/03/13 09:39:31;;;;;;;0.20;0.20;;;6.10;99.90;;;;;;5057764;28;20229;-58
2024/03/13 09:41:58;;;;;;;0.30;0.30;;;6.10;99.90;;;;;;5052897;28;20197;-59
2024/03/13 09:44:25;;;;;;;3.43;0.50;;;6.10;99.90;;;;;;5050598;28;20726;-59
2024/03/13 09:46:52;;;;;;;0.60;0.60;;;6.30;99.90;;;;;;5086358;22;20299;-64
2024/03/13 09:49:19;;;;;;;0.20;0.20;;;6.40;99.90;;;;;;5053034;28;20278;-66
2024/03/13 09:51:46;;;;;;;0.27;0.20;;;6.40;99.90;;;;;;5061041;28;20205;-63
2024/03/13 09:54:14;;;;;;;1.10;0.77;;;6.50;99.90;;;;;;5046906;28;20272;-69
2024/03/13 09:56:41;;;;;;;0.47;0.40;;;6.60;99.90;;;;;;5053642;28;20199;-73
2024/03/13 09:59:09;;;;;;;0.30;0.20;;;6.50;99.90;;;;;;5054166;28;20214;-72
2024/03/13 10:01:37;;;;;;;0.20;0.20;;;6.50;99.90;;;;;;5071633;28;20238;-72
2024/03/13 10:04:10;;;;;;;0.20;0.20;;;6.50;99.90;;;;;;5052877;28;20199;-70
2024/03/13 10:06:38;;;;;;;1.07;0.27;;;6.60;99.90;;;;;;5056305;28;20207;-70
2024/03/13 10:09:11;;;;;;;0.70;0.30;;;6.70;99.90;;;;;;5055801;28;20659;-72
2024/03/13 10:11:39;;;;;;;0.10;0.10;;;6.80;99.90;;;;;;5054871;28;20211;-70
2024/03/13 10:14:07;;;;;;;0.10;0.10;;;6.70;99.90;;;;;;5057138;28;20332;-72
2024/03/13 10:16:34;;;;;;;0.30;0.20;;;6.80;99.90;;;;;;5059577;28;20288;-71
2024/03/13 10:19:01;;;;;;;0.10;0.10;;;6.80;99.90;;;;;;5055957;28;20227;-71
2024/03/13 10:21:28;;;;;;;0.23;0.23;;;6.80;99.90;;;;;;5056419;28;20285;-71
2024/03/13 10:23:56;;;;;;;0.10;0.10;;;6.80;99.90;;;;;;5069408;28;20276;-72
2024/03/13 10:26:23;;;;;;;0.10;0.10;;;6.80;99.90;;;;;;5058307;28;20613;-71
2024/03/13 10:28:50;;;;;;;0.20;0.20;;;6.80;99.90;;;;;;5072458;28;20636;-71
2024/03/13 10:31:17;;;;;;;0.20;0.20;;;6.80;99.90;;;;;;5062890;28;20203;-70
2024/03/13 10:33:45;;;;;;;0.17;0.17;;;6.80;99.90;;;;;;5058572;28;20215;-73
2024/03/13 10:36:13;;;;;;;0.10;0.10;;;6.90;99.90;;;;;;5058912;28;20200;-72
2024/03/13 10:38:41;;;;;;;0.20;0.20;;;6.90;99.90;;;;;;5057589;28;20293;-72
2024/03/13 10:41:09;;;;;;;0.23;0.23;;;6.90;99.90;;;;;;5059314;28;20720;-72
2024/03/13 10:43:36;;;;;;;0.10;0.10;;;7.10;99.90;;;;;;5061431;28;20667;-72
2024/03/13 10:46:04;;;;;;;0.10;0.10;;;7.20;99.90;;;;;;5058681;28;20253;-67
2024/03/13 10:48:32;;;;;;;0.20;0.20;;;7.30;99.90;;;;;;5059368;28;20279;-67
2024/03/13 10:51:00;;;;;;;0.20;0.20;;;7.30;99.90;;;;;;5059865;28;20204;-68
2024/03/13 10:53:27;;;;;;;0.10;0.10;;;7.30;99.90;;;;;;5059429;28;20225;-69
2024/03/13 10:55:54;;;;;;;0.10;0.10;;;7.40;99.90;;;;;;5056092;28;20257;-66
2024/03/13 10:58:21;;;;;;;0.30;0.20;;;7.40;99.90;;;;;;5056599;28;20714;-67
2024/03/13 11:00:48;;;;;;;0.20;0.20;;;7.50;99.90;;;;;;5075443;28;20202;-71
2024/03/13 11:03:15;;;;;;;0.20;0.20;;;7.60;99.90;;;;;;5057374;28;20204;-70
2024/03/13 11:05:43;;;;;;;0.10;0.10;;;7.70;99.90;;;;;;5060566;28;20199;-71
2024/03/13 11:08:10;;;;;;;0.30;0.20;;;7.70;99.90;;;;;;5055033;28;20628;-72
2024/03/13 11:10:37;;;;;;;0.40;0.23;;;7.80;99.90;;;;;;5057646;28;20204;-72
2024/03/13 11:13:05;;;;;;;0.20;0.20;;;7.90;99.90;;;;;;5055514;28;20251;-73
2024/03/13 11:15:32;;;;;;;0.50;0.50;;;7.80;99.90;;;;;;5057471;28;20237;-70
2024/03/13 11:18:01;;;;;;;0.20;0.20;;;7.70;99.90;;;;;;5054581;28;20226;-71
2024/03/13 11:20:28;;;;;;;0.20;0.20;;;7.70;99.90;;;;;;5057721;28;20210;-64
2024/03/13 11:22:55;;;;;;;0.20;0.20;;;7.80;99.90;;;;;;5055330;28;20206;-67
2024/03/13 11:25:22;;;;;;;0.30;0.28;;;7.80;99.90;;;;;;5057106;28;20507;-63
2024/03/13 11:27:51;;;;;;;0.10;0.10;;;7.80;99.90;;;;;;5056502;28;20272;-63
2024/03/13 11:30:19;;;;;;;0.10;0.10;;;7.90;99.90;;;;;;5057319;28;20224;-63
2024/03/13 11:32:48;;;;;;;0.23;0.10;;;8.00;99.90;;;;;;5057128;28;20203;-63
2024/03/13 11:35:16;;;;;;;0.10;0.10;;;8.20;99.90;;;;;;5058286;28;20236;-63
2024/03/13 11:37:47;;;;;;;0.80;0.20;;;;;;;;;;5055096;28;20655;-64
2024/03/13 11:40:15;;;;;;;0.20;0.20;;;8.30;99.90;;;;;;5072673;28;20255;-63
2024/03/13 11:42:44;;;;;;;0.30;0.17;;;;;;;;;;5058170;28;20678;-64
2024/03/13 11:45:19;;;;;;;0.80;0.23;;;;;;;;;;5071247;28;20202;-63
2024/03/13 11:47:48;;;;;;;0.20;0.20;;;8.20;99.90;;;;;;5072173;28;20309;-64
2024/03/13 11:50:15;;;;;;;0.10;0.10;;;8.50;99.90;;;;;;5053729;28;20633;-69
2024/03/13 11:53:06;;;;;;;0.20;0.20;;;8.50;99.90;;;;;;5057599;28;20263;-70
2024/03/13 11:55:33;;;;;;;0.30;0.30;;;8.70;99.90;;;;;;5066078;28;20230;-70
2024/03/13 11:58:06;;;;;;;0.50;0.30;;;8.80;99.90;;;;;;5057407;28;20252;-74
2024/03/13 12:00:33;;;;;;;0.33;0.33;;;8.90;99.90;;;;;;5054812;28;20199;-73
2024/03/13 12:03:02;;;;;;;0.20;0.20;;;8.90;99.90;;;;;;5056674;28;20213;-71
2024/03/13 12:05:32;;;;;;;0.20;0.20;;;9.00;99.90;;;;;;5046135;28;20227;-71
2024/03/13 12:08:00;;;;;;;0.20;0.20;;;9.10;99.90;;;;;;5058277;28;20252;-70
2024/03/13 12:10:29;;;;;;;0.63;0.30;;;9.30;99.90;;;;;;5057492;28;20198;-70
2024/03/13 12:12:56;;;;;;;0.30;0.30;;;9.30;99.90;;;;;;5058600;28;20630;-72
2024/03/13 12:15:24;;;;;;;0.20;0.20;;;9.30;99.90;;;;;;5054248;28;20272;-70
2024/03/13 12:17:51;;;;;;;0.70;0.20;;;9.20;99.90;;;;;;5055129;28;20220;-71
2024/03/13 12:20:21;;;;;;;0.30;0.30;;;9.20;99.90;;;;;;5057999;28;20203;-68
2024/03/13 12:22:49;;;;;;;1.70;0.20;;;9.10;99.90;;;;;;5055396;28;20202;-66
2024/03/13 12:25:17;;;;;;;0.83;0.30;;;;;;;;;;5054987;28;20202;-65
2024/03/13 12:27:45;;;;;;;0.57;0.40;;;9.30;99.90;;;;;;5067173;28;20214;-68
2024/03/13 12:30:13;;;;;;;0.70;0.50;;;9.40;99.90;;;;;;5070912;28;20201;-65
2024/03/13 12:32:40;;;;;;;0.30;0.30;;;9.30;99.90;;;;;;5058450;28;20631;-66
2024/03/13 12:35:08;;;;;;;0.87;0.30;;;9.30;99.90;;;;;;5074973;28;20312;-66
2024/03/13 12:37:36;;;;;;;0.73;0.30;;;9.20;99.90;;;;;;5072048;28;20597;-67
2024/03/13 12:40:08;;;;;;;1.33;0.20;;;9.20;99.90;;;;;;5055543;28;20287;-70
2024/03/13 12:42:37;;;;;;;0.30;0.20;;;9.10;99.90;;;;;;5067405;28;20221;-70
2024/03/13 12:45:05;;;;;;;0.57;0.20;;;;;;;;;;5075209;28;20295;-69
2024/03/13 12:47:32;;;;;;;0.37;0.37;;;8.90;99.90;;;;;;5070996;28;20228;-71
2024/03/13 12:49:59;;;;;;;0.40;0.40;;;9.00;99.90;;;;;;5058417;28;20260;-71
2024/03/13 12:52:28;;;;;;;0.40;0.40;;;9.00;99.90;;;;;;5072996;28;20199;-71
2024/03/13 12:54:55;;;;;;;0.30;0.30;;;9.10;99.90;;;;;;5051175;28;20229;-71
2024/03/13 12:57:23;;;;;;;1.60;0.30;;;9.20;99.90;;;;;;5071635;28;20250;-70
2024/03/13 12:59:51;;;;;;;0.37;0.30;;;9.20;99.90;;;;;;5065137;28;20601;-70
2024/03/13 13:02:19;;;;;;;0.40;0.40;;;9.30;99.90;;;;;;5060148;28;20709;-71
2024/03/13 13:04:46;;;;;;;1.23;0.57;;;9.30;99.90;;;;;;5064731;28;20286;-71
2024/03/13 13:07:14;;;;;;;0.40;0.20;;;9.20;99.90;;;;;;5051769;28;20641;-68
2024/03/13 13:09:41;;;;;;;0.70;0.20;;;9.30;99.90;;;;;;5057090;28;20297;-66
2024/03/13 13:12:12;;;;;;;0.83;0.50;;;9.30;99.90;;;;;;5073186;28;20199;-64
2024/03/13 13:14:39;;;;;;;0.43;0.30;;;9.30;99.90;;;;;;5057898;28;20256;-71
2024/03/13 13:17:06;;;;;;;0.30;0.30;;;9.40;99.90;;;;;;5073396;28;20713;-71
2024/03/13 13:19:33;;;;;;;1.07;0.40;;;9.30;99.90;;;;;;5074387;28;20200;-70
2024/03/13 13:22:00;;;;;;;0.30;0.30;;;9.30;99.90;;;;;;5079795;28;20202;-74